Time;durP1;ratioP1;P1;durP2;ratioP2;P2;SDS_P1;SDS_P2;PMS_P1;PMS_P2;Temp;Humidity;BMP_temperature;BMP_pressure;BME280_temperature;BME280_humidity;BME280_pressure;Samples;Min_cycle;Max_cycle;Signal;HPM_P1;HPM_P2
2023/09/18 00:02:17;;;;;;;;;;;;;;;-140.72;100.00;52662.78;5073054;28;19920;-69
2023/09/18 00:04:43;;;;;;;;;;;;;;;-140.72;100.00;52650.59;5062530;28;19923;-68
2023/09/18 00:07:08;;;;;;;;;;;;;;;-140.72;100.00;52666.84;5063667;28;19920;-68
2023/09/18 00:09:42;;;;;;;;;;;;;;;-140.72;100.00;52638.41;5069216;28;19916;-68
2023/09/18 00:12:09;;;;;;;;;;;;;;;-140.72;100.00;52634.38;5066423;28;19927;-69
2023/09/18 00:14:34;;;;;;;;;;;;;;;-140.72;100.00;52650.59;5073283;28;20218;-69
2023/09/18 00:17:00;;;;;;;;;;;;;;;-140.72;100.00;52630.31;5062742;28;20015;-69
2023/09/18 00:19:25;;;;;;;;;;;;;;;-140.72;100.00;52658.72;5059950;28;19923;-68
2023/09/18 00:21:52;;;;;;;;;;;;;;;-140.72;100.00;52650.59;5066459;28;20425;-68
2023/09/18 00:24:17;;;;;;;;;;;;;;;-140.72;100.00;52626.25;5071656;28;19916;-68
2023/09/18 00:26:42;;;;;;;;;;;;;;;-140.72;100.00;52662.78;5067658;28;19923;-69
2023/09/18 00:29:08;;;;;;;;;;;;;;;-140.72;100.00;52636.38;5073971;28;19924;-69
2023/09/18 00:31:33;;;;;;;;;;;;;;;-140.72;100.00;52648.56;5065008;28;19923;-69
2023/09/18 00:33:58;;;;;;;;;;;;;;;-140.72;100.00;52642.47;5075573;28;20272;-69
2023/09/18 00:36:23;;;;;;;;;;;;;;;-140.72;100.00;52618.13;5067040;28;20439;-68
2023/09/18 00:38:49;;;;;;;;;;;;;;;-140.72;100.00;52640.44;5066172;28;19925;-69
2023/09/18 00:41:14;;;;;;;;;;;;;;;-140.72;100.00;52640.44;5076218;28;19992;-68
2023/09/18 00:43:39;;;;;;;;;;;;;;;-140.72;100.00;52662.78;5072153;28;20271;-69
2023/09/18 00:46:04;;;;;;;;;;;;;;;-140.72;100.00;52658.72;5075644;28;19967;-69
2023/09/18 00:48:30;;;;;;;;;;;;;;;-140.72;100.00;52670.88;5072756;28;20375;-69
2023/09/18 00:50:56;;;;;;;;;;;;;;;-140.72;100.00;52648.56;5063516;28;19924;-69
2023/09/18 00:53:52;;;;;;;;;;;;;;;-140.72;100.00;52626.25;5065149;28;19921;-69
2023/09/18 00:56:20;;;;;;;;;;;;;;;-140.72;100.00;52642.47;5065925;28;19927;-68
2023/09/18 00:58:45;;;;;;;;;;;;;;;-140.72;100.00;52668.84;5067816;28;19928;-69
2023/09/18 01:01:11;;;;;;;;;;;;;;;-140.72;100.00;52662.78;5064270;28;19917;-69
2023/09/18 01:03:36;;;;;;;;;;;;;;;-140.72;100.00;52614.06;5057699;28;19922;-68
2023/09/18 01:06:03;;;;;;;;;;;;;;;-140.72;100.00;52640.44;5064108;28;19917;-69
2023/09/18 01:08:40;;;;;;;;;;;;;;;-140.72;100.00;52658.72;5073919;28;19916;-69
2023/09/18 01:11:14;;;;;;;;;;;;;;;-140.72;100.00;52648.56;5069140;28;20026;-68
2023/09/18 01:13:54;;;;;;;;;;;;;;;-140.72;100.00;52676.97;5053826;28;19917;-68
2023/09/18 01:16:32;;;;;;;;;;;;;;;-140.72;100.00;52646.53;5053810;28;19924;-68
2023/09/18 01:18:57;;;;;;;;;;;;;;;-140.72;100.00;52674.94;5065709;28;19920;-68
2023/09/18 01:24:24;;;;;;;;;;;;;;;-140.72;100.00;52674.94;5059757;28;19923;-68
2023/09/18 01:26:50;;;;;;;;;;;;;;;-140.72;100.00;52656.69;5066611;28;19920;-68
2023/09/18 01:29:17;;;;;;;;;;;;;;;-140.72;100.00;52642.47;5067609;28;20113;-68
2023/09/18 01:31:51;;;;;;;;;;;;;;;-140.72;100.00;52650.59;5060290;28;19924;-68
2023/09/18 01:34:18;;;;;;;;;;;;;;;-140.72;100.00;52644.50;5082384;28;19947;-68
2023/09/18 01:36:53;;;;;;;;;;;;;;;-140.72;100.00;52652.63;5074333;28;19917;-68
2023/09/18 01:39:20;;;;;;;;;;;;;;;-140.72;100.00;52654.66;5072386;28;19917;-68
2023/09/18 01:41:45;;;;;;;;;;;;;;;-140.72;100.00;52654.66;5067861;28;19917;-68
2023/09/18 01:44:11;;;;;;;;;;;;;;;-140.72;100.00;52648.56;5064497;28;19923;-68
2023/09/18 01:46:36;;;;;;;;;;;;;;;-140.72;100.00;52681.03;5068621;28;19921;-68
2023/09/18 01:49:04;;;;;;;;;;;;;;;-140.72;100.00;52666.84;5075758;28;19923;-68
2023/09/18 01:51:30;;;;;;;;;;;;;;;-140.72;100.00;52676.97;5067254;28;19966;-68
2023/09/18 01:53:55;;;;;;;;;;;;;;;-140.72;100.00;52640.44;5066780;28;19920;-68
2023/09/18 01:56:20;;;;;;;;;;;;;;;-140.72;100.00;52638.41;5057336;28;20366;-67
2023/09/18 01:58:45;;;;;;;;;;;;;;;-140.72;100.00;52664.81;5066300;28;19920;-68
2023/09/18 02:01:11;;;;;;;;;;;;;;;-140.72;100.00;52660.75;5071842;28;19927;-68
2023/09/18 02:03:36;;;;;;;;;;;;;;;-140.72;100.00;52618.13;5068626;28;19916;-68
2023/09/18 02:06:01;;;;;;;;;;;;;;;-140.72;100.00;52638.41;5077255;28;19917;-68
2023/09/18 02:11:29;;;;;;;;;;;;;;;-140.72;100.00;52664.81;5069106;28;20286;-68
2023/09/18 02:13:54;;;;;;;;;;;;;;;-140.72;100.00;52638.41;5076387;28;20019;-68
2023/09/18 02:16:23;;;;;;;;;;;;;;;-140.72;100.00;52630.31;5066895;28;20287;-68
2023/09/18 02:18:49;;;;;;;;;;;;;;;-140.72;100.00;52672.91;5065727;28;19921;-68
2023/09/18 02:21:21;;;;;;;;;;;;;;;-140.72;100.00;52620.16;5063630;28;20011;-68
2023/09/18 02:23:48;;;;;;;;;;;;;;;-140.72;100.00;52658.72;5076532;28;19924;-68
2023/09/18 02:26:14;;;;;;;;;;;;;;;-140.72;100.00;52642.47;5070153;28;19924;-69
2023/09/18 02:28:39;;;;;;;;;;;;;;;-140.72;100.00;52670.88;5069294;28;19921;-68
2023/09/18 02:31:04;;;;;;;;;;;;;;;-140.72;100.00;52691.19;5075527;28;19924;-68
2023/09/18 02:33:29;;;;;;;;;;;;;;;-140.72;100.00;52642.47;5075409;28;19924;-68
2023/09/18 02:35:55;;;;;;;;;;;;;;;-140.72;100.00;52656.69;5069957;28;19920;-68
2023/09/18 02:38:20;;;;;;;;;;;;;;;-140.72;100.00;52630.31;5070042;28;19938;-68
2023/09/18 02:40:45;;;;;;;;;;;;;;;-140.72;100.00;52648.56;5075034;28;19924;-68
2023/09/18 02:43:10;;;;;;;;;;;;;;;-140.72;100.00;52650.59;5075406;28;19916;-68
2023/09/18 02:45:35;;;;;;;;;;;;;;;-140.72;100.00;52662.78;5075443;28;19973;-68
2023/09/18 02:48:01;;;;;;;;;;;;;;;-140.72;100.00;52634.38;5079493;28;19955;-68
2023/09/18 02:50:44;;;;;;;;;;;;;;;-140.72;100.00;52683.06;5070382;28;20034;-68
2023/09/18 02:53:16;;;;;;;;;;;;;;;-140.72;100.00;52658.72;5060703;28;19921;-68
2023/09/18 02:56:16;;;;;;;;;;;;;;;-140.72;100.00;52668.84;5073781;28;19944;-68
2023/09/18 02:58:41;;;;;;;;;;;;;;;-140.72;100.00;52654.66;5065956;28;20003;-68
2023/09/18 03:01:06;;;;;;;;;;;;;;;-140.72;100.00;52630.31;5070938;28;19948;-68
2023/09/18 03:03:33;;;;;;;;;;;;;;;-140.72;100.00;52699.31;5083619;28;19917;-67
2023/09/18 03:06:02;;;;;;;;;;;;;;;-140.72;100.00;52640.44;5066608;28;19923;-68
2023/09/18 03:08:27;;;;;;;;;;;;;;;-140.72;100.00;52650.59;5064850;28;19927;-68
2023/09/18 03:10:52;;;;;;;;;;;;;;;-140.72;100.00;52662.78;5079530;28;19916;-68
2023/09/18 03:13:17;;;;;;;;;;;;;;;-140.72;100.00;52654.66;5079933;28;19916;-68
2023/09/18 03:15:48;;;;;;;;;;;;;;;-140.72;100.00;52642.47;5070481;28;19927;-68
2023/09/18 03:18:14;;;;;;;;;;;;;;;-140.72;100.00;52664.81;5084870;28;19916;-68
2023/09/18 03:20:39;;;;;;;;;;;;;;;-140.72;100.00;52723.66;5062746;28;19920;-68
2023/09/18 03:23:04;;;;;;;;;;;;;;;-140.72;100.00;52674.94;5075215;28;19952;-68
2023/09/18 03:25:30;;;;;;;;;;;;;;;-140.72;100.00;52703.34;5071059;28;19959;-68
2023/09/18 03:27:57;;;;;;;;;;;;;;;-140.72;100.00;52644.50;5067963;28;19967;-68
2023/09/18 03:30:26;;;;;;;;;;;;;;;-140.72;100.00;52670.88;5065276;28;20363;-67
2023/09/18 03:32:52;;;;;;;;;;;;;;;-140.72;100.00;52658.72;5069630;28;20394;-67
2023/09/18 03:35:18;;;;;;;;;;;;;;;-140.72;100.00;52670.88;5062019;28;19917;-67
2023/09/18 03:37:44;;;;;;;;;;;;;;;-140.72;100.00;52652.63;5062284;28;19917;-66
2023/09/18 03:40:09;;;;;;;;;;;;;;;-140.72;100.00;52664.81;5080494;28;20019;-66
2023/09/18 03:42:34;;;;;;;;;;;;;;;-140.72;100.00;52638.41;5079140;28;19916;-66
2023/09/18 03:45:00;;;;;;;;;;;;;;;-140.72;100.00;52636.38;5074338;28;19964;-66
2023/09/18 03:47:25;;;;;;;;;;;;;;;-140.72;100.00;52656.69;5074967;28;19917;-66
2023/09/18 03:49:50;;;;;;;;;;;;;;;-140.72;100.00;52648.56;5069949;28;20428;-66
2023/09/18 03:52:16;;;;;;;;;;;;;;;-140.72;100.00;52644.50;5082188;28;19928;-66
2023/09/18 03:54:41;;;;;;;;;;;;;;;-140.72;100.00;52650.59;5077371;28;19965;-66
2023/09/18 03:57:06;;;;;;;;;;;;;;;-140.72;100.00;52662.78;5061763;28;19927;-66
2023/09/18 03:59:31;;;;;;;;;;;;;;;-140.72;100.00;52644.50;5056085;28;19916;-66
2023/09/18 04:01:57;;;;;;;;;;;;;;;-140.72;100.00;52646.53;5056033;28;19917;-66
2023/09/18 04:04:22;;;;;;;;;;;;;;;-140.72;100.00;52601.91;5061536;28;19926;-66
2023/09/18 04:06:47;;;;;;;;;;;;;;;-140.72;100.00;52670.88;5072724;28;19928;-66
2023/09/18 04:09:14;;;;;;;;;;;;;;;-140.72;100.00;52646.53;5080089;28;19916;-66
2023/09/18 04:11:40;;;;;;;;;;;;;;;-140.72;100.00;52658.72;5062949;28;19927;-66
2023/09/18 04:14:05;;;;;;;;;;;;;;;-140.72;100.00;52648.56;5067662;28;19916;-66
2023/09/18 04:16:37;;;;;;;;;;;;;;;-140.72;100.00;52654.66;5073396;28;19916;-67
2023/09/18 04:19:04;;;;;;;;;;;;;;;-140.72;100.00;52691.19;5066658;28;20371;-69
2023/09/18 04:21:29;;;;;;;;;;;;;;;-140.72;100.00;52640.44;5070482;28;19932;-72
2023/09/18 04:23:58;;;;;;;;;;;;;;;-140.72;100.00;52628.28;5067799;28;19964;-69
2023/09/18 04:26:30;;;;;;;;;;;;;;;-140.72;100.00;52630.31;5055036;28;20375;-70
2023/09/18 04:29:05;;;;;;;;;;;;;;;-140.72;100.00;52642.47;5066701;28;19916;-70
2023/09/18 04:31:30;;;;;;;;;;;;;;;-140.72;100.00;52630.31;5068368;28;19920;-72
2023/09/18 04:33:56;;;;;;;;;;;;;;;-140.72;100.00;52636.38;5061766;28;19917;-70
2023/09/18 04:36:21;;;;;;;;;;;;;;;-140.72;100.00;52636.38;5068173;28;19936;-71
2023/09/18 04:38:46;;;;;;;;;;;;;;;-140.72;100.00;52648.56;5058347;28;19939;-70
2023/09/18 04:41:11;;;;;;;;;;;;;;;-140.72;100.00;52648.56;5083071;28;19921;-70
2023/09/18 04:43:38;;;;;;;;;;;;;;;-140.72;100.00;52658.72;5071547;28;20294;-70
2023/09/18 04:46:04;;;;;;;;;;;;;;;-140.72;100.00;52638.41;5073355;28;20367;-69
2023/09/18 04:48:30;;;;;;;;;;;;;;;-140.72;100.00;52666.84;5079569;28;19927;-69
2023/09/18 04:50:55;;;;;;;;;;;;;;;-140.72;100.00;52634.38;5054617;28;20302;-70
2023/09/18 04:53:20;;;;;;;;;;;;;;;-140.72;100.00;52646.53;5074035;28;19924;-71
2023/09/18 04:55:49;;;;;;;;;;;;;;;-140.72;100.00;52616.09;5060403;28;19946;-71
2023/09/18 04:58:15;;;;;;;;;;;;;;;-140.72;100.00;52664.81;5080902;28;19961;-71
2023/09/18 05:00:41;;;;;;;;;;;;;;;-140.72;100.00;52644.50;5078192;28;19920;-71
2023/09/18 05:03:08;;;;;;;;;;;;;;;-140.72;100.00;52676.97;5083023;28;20290;-75
2023/09/18 05:05:33;;;;;;;;;;;;;;;-140.72;100.00;52654.66;5063018;28;20891;-73
2023/09/18 05:07:58;;;;;;;;;;;;;;;-140.72;100.00;52638.41;5073458;28;19920;-70
2023/09/18 05:10:24;;;;;;;;;;;;;;;-140.72;100.00;52610.00;5065458;28;20367;-67
2023/09/18 05:12:50;;;;;;;;;;;;;;;-140.72;100.00;52652.63;5059000;28;20291;-67
2023/09/18 05:15:16;;;;;;;;;;;;;;;-140.72;100.00;52668.84;5069740;28;19921;-68
2023/09/18 05:17:51;;;;;;;;;;;;;;;-140.72;100.00;52658.72;5062239;28;19922;-66
2023/09/18 05:20:17;;;;;;;;;;;;;;;-140.72;100.00;52644.50;5082868;28;19916;-67
2023/09/18 05:22:43;;;;;;;;;;;;;;;-140.72;100.00;52638.41;5075701;28;20321;-66
2023/09/18 05:25:11;;;;;;;;;;;;;;;-140.72;100.00;52668.84;5071839;28;20337;-66
2023/09/18 05:27:43;;;;;;;;;;;;;;;-140.72;100.00;52656.69;5083393;28;20008;-66
2023/09/18 05:30:10;;;;;;;;;;;;;;;-140.72;100.00;52658.72;5073009;28;19916;-66
2023/09/18 05:32:35;;;;;;;;;;;;;;;-140.72;100.00;52674.94;5067840;28;19928;-67
2023/09/18 05:35:04;;;;;;;;;;;;;;;-140.72;100.00;52654.66;5069769;28;19917;-67
2023/09/18 05:37:30;;;;;;;;;;;;;;;-140.72;100.00;52660.75;5070755;28;20332;-66
2023/09/18 05:39:55;;;;;;;;;;;;;;;-140.72;100.00;52654.66;5066249;28;20011;-66
2023/09/18 05:42:21;;;;;;;;;;;;;;;-140.72;100.00;52679.00;5065645;28;20295;-67
2023/09/18 05:44:46;;;;;;;;;;;;;;;-140.72;100.00;52676.97;5072481;28;19917;-67
2023/09/18 05:47:12;;;;;;;;;;;;;;;-140.72;100.00;52660.75;5072022;28;19920;-67
2023/09/18 05:49:38;;;;;;;;;;;;;;;-140.72;100.00;52676.97;5066619;28;19916;-67
2023/09/18 05:52:03;;;;;;;;;;;;;;;-140.72;100.00;52658.72;5073060;28;20011;-67
2023/09/18 05:54:28;;;;;;;;;;;;;;;-140.72;100.00;52658.72;5070518;28;20436;-69
2023/09/18 05:56:53;;;;;;;;;;;;;;;-140.72;100.00;52679.00;5066922;28;19917;-71
2023/09/18 05:59:20;;;;;;;;;;;;;;;-140.72;100.00;52658.72;5061105;28;19948;-69
2023/09/18 06:01:45;;;;;;;;;;;;;;;-140.72;100.00;52703.34;5074047;28;19920;-70
2023/09/18 06:04:10;;;;;;;;;;;;;;;-140.72;100.00;52666.84;5055363;28;19978;-68
2023/09/18 06:06:35;;;;;;;;;;;;;;;-140.72;100.00;52672.91;5070987;28;19924;-69
2023/09/18 06:09:01;;;;;;;;;;;;;;;-140.72;100.00;52654.66;5071007;28;19923;-66
2023/09/18 06:11:26;;;;;;;;;;;;;;;-140.72;100.00;52666.84;5060243;28;19923;-66
2023/09/18 06:13:51;;;;;;;;;;;;;;;-140.72;100.00;52654.66;5065929;28;19956;-67
2023/09/18 06:16:16;;;;;;;;;;;;;;;-140.72;100.00;52672.91;5069387;28;19974;-66
2023/09/18 06:18:41;;;;;;;;;;;;;;;-140.72;100.00;52687.13;5075320;28;19973;-66
2023/09/18 06:21:07;;;;;;;;;;;;;;;-140.72;100.00;52683.06;5073230;28;19916;-67
2023/09/18 06:23:33;;;;;;;;;;;;;;;-140.72;100.00;52648.56;5073200;28;19916;-67
2023/09/18 06:25:59;;;;;;;;;;;;;;;-140.72;100.00;52626.25;5083455;28;19916;-66
2023/09/18 06:28:24;;;;;;;;;;;;;;;-140.72;100.00;52654.66;5062431;28;19924;-67
2023/09/18 06:30:49;;;;;;;;;;;;;;;-140.72;100.00;52656.69;5070126;28;20270;-67
2023/09/18 06:33:15;;;;;;;;;;;;;;;-140.72;100.00;52648.56;5068559;28;19921;-66
2023/09/18 06:35:41;;;;;;;;;;;;;;;-140.72;100.00;52650.59;5072676;28;19934;-66
2023/09/18 06:38:07;;;;;;;;;;;;;;;-140.72;100.00;52683.06;5074013;28;19924;-66
2023/09/18 06:40:32;;;;;;;;;;;;;;;-140.72;100.00;52679.00;5075518;28;19916;-66
2023/09/18 06:43:00;;;;;;;;;;;;;;;-140.72;100.00;52658.72;5081095;28;19966;-66
2023/09/18 06:45:26;;;;;;;;;;;;;;;-140.72;100.00;52664.81;5063677;28;20003;-67
2023/09/18 06:47:53;;;;;;;;;;;;;;;-140.72;100.00;52660.75;5071211;28;20011;-67
2023/09/18 06:50:18;;;;;;;;;;;;;;;-140.72;100.00;52672.91;5066126;28;19962;-67
2023/09/18 06:52:43;;;;;;;;;;;;;;;-140.72;100.00;52634.38;5075637;28;19924;-68
2023/09/18 06:55:09;;;;;;;;;;;;;;;-140.72;100.00;52666.84;5074417;28;20398;-67
2023/09/18 06:57:34;;;;;;;;;;;;;;;-140.72;100.00;52679.00;5074577;28;19974;-67
2023/09/18 07:00:01;;;;;;;;;;;;;;;-140.72;100.00;52612.03;5075151;28;20296;-66
2023/09/18 07:02:27;;;;;;;;;;;;;;;-140.72;100.00;52672.91;5080246;28;19967;-66
2023/09/18 07:04:52;;;;;;;;;;;;;;;-140.72;100.00;52691.19;5076998;28;19920;-67
2023/09/18 07:07:24;;;;;;;;;;;;;;;-140.72;100.00;52660.75;5074474;28;19921;-67
2023/09/18 07:09:50;;;;;;;;;;;;;;;-140.72;100.00;52674.94;5065488;28;19931;-66
2023/09/18 07:12:15;;;;;;;;;;;;;;;-140.72;100.00;52630.31;5058785;28;19921;-67
2023/09/18 07:14:40;;;;;;;;;;;;;;;-140.72;100.00;52674.94;5057072;28;19921;-66
2023/09/18 07:17:05;;;;;;;;;;;;;;;-140.72;100.00;52646.53;5075624;28;20039;-68
2023/09/18 07:19:55;;;;;;;;;;;;;;;-140.72;100.00;52642.47;5083819;28;19917;-68
2023/09/18 07:22:20;;;;;;;;;;;;;;;-140.72;100.00;52691.19;5081557;28;19973;-69
2023/09/18 07:24:45;;;;;;;;;;;;;;;-140.72;100.00;52674.94;5093753;28;20291;-68
2023/09/18 07:27:22;;;;;;;;;;;;;;;-140.72;100.00;52705.38;5063910;28;19990;-68
2023/09/18 07:29:47;;;;;;;;;;;;;;;-140.72;100.00;52683.06;5088665;28;19924;-68
2023/09/18 07:32:37;;;;;;;;;;;;;;;-140.72;100.00;52674.94;5062323;28;19920;-68
2023/09/18 07:35:04;;;;;;;;;;;;;;;-140.72;100.00;52652.63;5066236;28;19924;-68
2023/09/18 07:37:30;;;;;;;;;;;;;;;-140.72;100.00;52648.56;5073663;28;19928;-68
2023/09/18 07:39:55;;;;;;;;;;;;;;;-140.72;100.00;52642.47;5069740;28;20008;-69
2023/09/18 07:42:23;;;;;;;;;;;;;;;-140.72;100.00;52679.00;5073930;28;19934;-68
2023/09/18 07:44:48;;;;;;;;;;;;;;;-140.72;100.00;52670.88;5069933;28;19923;-68
2023/09/18 07:47:14;;;;;;;;;;;;;;;-140.72;100.00;52650.59;5067488;28;19920;-68
2023/09/18 07:49:39;;;;;;;;;;;;;;;-140.72;100.00;52693.22;5066952;28;19928;-68
2023/09/18 07:52:04;;;;;;;;;;;;;;;-140.72;100.00;52674.94;5067091;28;19943;-68
2023/09/18 07:54:29;;;;;;;;;;;;;;;-140.72;100.00;52683.06;5061073;28;19924;-68
2023/09/18 07:56:55;;;;;;;;;;;;;;;-140.72;100.00;52674.94;5074308;28;19920;-68
2023/09/18 07:59:20;;;;;;;;;;;;;;;-140.72;100.00;52693.22;5078493;28;19928;-68
2023/09/18 08:01:45;;;;;;;;;;;;;;;-140.72;100.00;52654.66;5064518;28;20078;-68
2023/09/18 08:04:10;;;;;;;;;;;;;;;-140.72;100.00;52662.78;5071554;28;20423;-68
2023/09/18 08:06:35;;;;;;;;;;;;;;;-140.72;100.00;52648.56;5070070;28;19924;-68
2023/09/18 08:09:01;;;;;;;;;;;;;;;-140.72;100.00;52660.75;5066866;28;20349;-68
2023/09/18 08:11:26;;;;;;;;;;;;;;;-140.72;100.00;52670.88;5070172;28;20030;-68
2023/09/18 08:13:51;;;;;;;;;;;;;;;-140.72;100.00;52656.69;5070656;28;19971;-68
2023/09/18 08:16:17;;;;;;;;;;;;;;;-140.72;100.00;52650.59;5070234;28;19924;-68
2023/09/18 08:18:43;;;;;;;;;;;;;;;-140.72;100.00;52642.47;5090185;28;19921;-68
2023/09/18 08:21:09;;;;;;;;;;;;;;;-140.72;100.00;52681.03;5080566;28;19920;-69
2023/09/18 08:23:34;;;;;;;;;;;;;;;-140.72;100.00;52630.31;5074470;28;19975;-69
2023/09/18 08:26:01;;;;;;;;;;;;;;;-140.72;100.00;52622.19;5073191;28;19924;-69
2023/09/18 08:28:26;;;;;;;;;;;;;;;-140.72;100.00;52614.06;5071347;28;19924;-70
2023/09/18 08:30:51;;;;;;;;;;;;;;;-140.72;100.00;52595.81;5072473;28;19981;-70
2023/09/18 08:33:16;;;;;;;;;;;;;;;-140.72;100.00;52614.06;5074308;28;19934;-70
2023/09/18 08:35:42;;;;;;;;;;;;;;;-140.72;100.00;52601.91;5075698;28;19981;-69
2023/09/18 08:38:07;;;;;;;;;;;;;;;-140.72;100.00;52601.91;5072928;28;20388;-70
2023/09/18 08:40:33;;;;;;;;;;;;;;;-140.72;100.00;52589.72;5077227;28;19920;-70
2023/09/18 08:43:03;;;;;;;;;;;;;;;-140.72;100.00;52581.59;5071904;28;20011;-67
2023/09/18 08:45:35;;;;;;;;;;;;;;;-140.72;100.00;52610.00;5069746;28;19932;-69
2023/09/18 08:48:00;;;;;;;;;;;;;;;-140.72;100.00;52603.94;5074953;28;20383;-68
2023/09/18 08:50:26;;;;;;;;;;;;;;;-140.72;100.00;52640.44;5066800;28;19921;-68
2023/09/18 08:52:51;;;;;;;;;;;;;;;-140.72;100.00;52603.94;5062721;28;20011;-68
2023/09/18 08:55:17;;;;;;;;;;;;;;;-140.72;100.00;52581.59;5071267;28;19968;-68
2023/09/18 08:57:44;;;;;;;;;;;;;;;-140.72;100.00;52628.28;5083070;28;20397;-69
2023/09/18 09:00:11;;;;;;;;;;;;;;;-140.72;100.00;52599.88;5085457;28;19925;-68
2023/09/18 09:02:37;;;;;;;;;;;;;;;-140.72;100.00;52607.97;5069960;28;19924;-68
2023/09/18 09:05:02;;;;;;;;;;;;;;;-140.72;100.00;52559.28;5076852;28;20036;-68
2023/09/18 09:07:30;;;;;;;;;;;;;;;-140.72;100.00;52644.50;5075656;28;19928;-68
2023/09/18 09:09:55;;;;;;;;;;;;;;;-140.72;100.00;52650.59;5070949;28;20298;-69
2023/09/18 09:12:46;;;;;;;;;;;;;;;-140.72;100.00;52591.75;5070696;28;19920;-68
2023/09/18 09:15:11;;;;;;;;;;;;;;;-140.72;100.00;52597.84;5068025;28;19920;-68
2023/09/18 09:17:36;;;;;;;;;;;;;;;-140.72;100.00;52644.50;5067840;28;19977;-69
2023/09/18 09:20:12;;;;;;;;;;;;;;;-140.72;100.00;52573.50;5078369;28;20404;-69
2023/09/18 09:22:37;;;;;;;;;;;;;;;-140.72;100.00;52575.50;5078067;28;19936;-69
2023/09/18 09:25:03;;;;;;;;;;;;;;;-140.72;100.00;52571.47;5070619;28;19920;-69
2023/09/18 09:27:28;;;;;;;;;;;;;;;-140.72;100.00;52585.66;5076168;28;19920;-69
2023/09/18 09:29:59;;;;;;;;;;;;;;;-140.72;100.00;52569.44;5071890;28;20493;-69
2023/09/18 09:32:29;;;;;;;;;;;;;;;-140.72;100.00;52593.78;5068272;28;19920;-69
2023/09/18 09:34:58;;;;;;;;;;;;;;;-140.72;100.00;52561.31;5065478;28;20317;-69
2023/09/18 09:37:30;;;;;;;;;;;;;;;-140.72;100.00;52557.25;5066633;28;20363;-69
2023/09/18 09:39:55;;;;;;;;;;;;;;;-140.72;100.00;52616.09;5072956;28;19921;-69
2023/09/18 09:42:35;;;;;;;;;;;;;;;-140.72;100.00;52595.81;5074396;28;19927;-69
2023/09/18 09:45:03;;;;;;;;;;;;;;;-140.72;100.00;52534.94;5065229;28;20367;-69
2023/09/18 09:47:31;;;;;;;;;;;;;;;-140.72;100.00;52541.03;5071491;28;19966;-70
2023/09/18 09:49:56;;;;;;;;;;;;;;;-140.72;100.00;52528.84;5067500;28;19928;-70
2023/09/18 09:52:22;;;;;;;;;;;;;;;-140.72;100.00;52534.94;5063898;28;20314;-70
2023/09/18 09:54:47;;;;;;;;;;;;;;;-140.72;100.00;52506.53;5073006;28;19988;-70
2023/09/18 09:57:12;;;;;;;;;;;;;;;-140.72;100.00;52563.34;5064775;28;19917;-70
2023/09/18 09:59:44;;;;;;;;;;;;;;;-140.72;100.00;52528.84;5059746;28;19963;-70
2023/09/18 10:02:12;;;;;;;;;;;;;;;-140.72;100.00;52451.72;5076051;28;19920;-70
2023/09/18 10:04:37;;;;;;;;;;;;;;;-140.72;100.00;52480.16;5070731;28;19921;-70
2023/09/18 10:07:07;;;;;;;;;;;;;;;-140.72;100.00;52463.91;5067635;28;19924;-70
2023/09/18 10:09:34;;;;;;;;;;;;;;;-140.72;100.00;52478.13;5073381;28;20015;-70
2023/09/18 10:12:01;;;;;;;;;;;;;;;-140.72;100.00;52398.97;5072337;28;20187;-70
2023/09/18 10:14:31;;;;;;;;;;;;;;;-140.72;100.00;52429.41;5072332;28;19921;-70
2023/09/18 10:16:59;;;;;;;;;;;;;;;-140.72;100.00;52423.31;5079410;28;20294;-70
2023/09/18 10:19:30;;;;;;;;;;;;;;;-140.72;100.00;52368.53;5075160;28;19931;-70
2023/09/18 10:22:20;;;;;;;;;;;;;;;-140.72;100.00;52358.41;5074053;28;20007;-70
2023/09/18 10:24:47;;;;;;;;;;;;;;;-140.72;100.00;52346.22;5066814;28;19959;-68
2023/09/18 10:27:13;;;;;;;;;;;;;;;-140.72;100.00;52340.13;5076932;28;20003;-70
2023/09/18 10:29:40;;;;;;;;;;;;;;;-140.72;100.00;52417.25;5063227;28;20352;-69
2023/09/18 10:32:09;;;;;;;;;;;;;;;-140.72;100.00;52463.91;5083020;28;20018;-69
2023/09/18 10:34:34;;;;;;;;;;;;;;;-140.72;100.00;52366.50;5084037;28;19978;-69
2023/09/18 10:37:01;;;;;;;;;;;;;;;-140.72;100.00;52380.72;5074671;28;19971;-69
2023/09/18 10:39:26;;;;;;;;;;;;;;;-140.72;100.00;52354.34;5072700;28;19928;-70
2023/09/18 10:42:01;;;;;;;;;;;;;;;-140.72;100.00;52352.31;5083856;28;20671;-70
2023/09/18 10:44:27;;;;;;;;;;;;;;;-140.72;100.00;52356.38;5072681;28;19974;-70
2023/09/18 10:46:53;;;;;;;;;;;;;;;-140.72;80.53;52364.47;5076605;28;20379;-69
2023/09/18 10:49:18;;;;;;;;;;;;;;;-140.72;48.03;52344.19;5067872;28;19949;-70
2023/09/18 10:51:45;;;;;;;;;;;;;;;-140.72;42.60;52279.25;5075087;28;20282;-70
2023/09/18 10:54:14;;;;;;;;;;;;;;;-140.72;33.07;52352.31;5071669;28;19920;-69
2023/09/18 10:56:40;;;;;;;;;;;;;;;-140.72;0.00;52254.91;5086785;28;20314;-68
2023/09/18 10:59:07;;;;;;;;;;;;;;;-140.72;0.00;52240.72;5074845;28;20011;-68
2023/09/18 11:01:34;;;;;;;;;;;;;;;-140.72;0.00;52382.75;5075049;28;19921;-68
2023/09/18 11:04:08;;;;;;;;;;;;;;;-140.72;0.00;52277.22;5066448;28;20012;-68
2023/09/18 11:06:52;;;;;;;;;;;;;;;-140.72;0.00;52269.13;5067684;28;19952;-68
2023/09/18 11:09:19;;;;;;;;;;;;;;;-140.72;0.00;52342.16;5064015;28;19929;-68
2023/09/18 11:11:44;;;;;;;;;;;;;;;-140.72;49.92;52419.28;5069215;28;19936;-69
2023/09/18 11:14:10;;;;;;;;;;;;;;;-140.72;100.00;52463.91;5073295;28;20305;-69
2023/09/18 11:16:38;;;;;;;;;;;;;;;-140.72;100.00;52520.72;5066481;28;20367;-69
2023/09/18 11:19:06;;;;;;;;;;;;;;;-140.72;100.00;52504.50;5080392;28;19927;-69
2023/09/18 11:21:32;;;;;;;;;;;;;;;-140.72;100.00;52476.09;5076072;28;19917;-69
2023/09/18 11:23:58;;;;;;;;;;;;;;;-140.72;100.00;52504.50;5075343;28;19920;-69
2023/09/18 11:26:23;;;;;;;;;;;;;;;-140.72;100.00;52496.38;5071507;28;19975;-69
2023/09/18 11:28:50;;;;;;;;;;;;;;;-140.72;100.00;52327.97;5070741;28;19960;-69
2023/09/18 11:31:15;;;;;;;;;;;;;;;-140.72;100.00;52263.03;5076465;28;19935;-69
2023/09/18 11:33:43;;;;;;;;;;;;;;;-140.72;100.00;52204.19;5080556;28;19920;-68
2023/09/18 11:36:14;;;;;;;;;;;;;;;-140.72;0.00;52192.00;5081669;28;20389;-69
2023/09/18 11:38:51;;;;;;;;;;;;;;;-140.72;0.00;52159.56;5073195;28;19920;-69
2023/09/18 11:41:25;;;;;;;;;;;;;;;-140.72;0.00;52108.81;5077350;28;19921;-69
2023/09/18 11:43:50;;;;;;;;;;;;;;;-140.72;0.00;52151.44;5077139;28;20553;-69
2023/09/18 11:46:20;;;;;;;;;;;;;;;-140.72;0.00;52165.63;5075977;28;19974;-69
2023/09/18 11:48:47;;;;;;;;;;;;;;;-140.72;0.00;52110.84;5079789;28;20690;-69
2023/09/18 11:51:14;;;;;;;;;;;;;;;-140.72;0.00;52167.66;5071129;28;19924;-68
2023/09/18 11:53:41;;;;;;;;;;;;;;;-140.72;0.00;52315.78;5073940;28;20126;-69
2023/09/18 11:56:18;;;;;;;;;;;;;;;-140.72;0.00;52179.84;5082847;28;19927;-69
2023/09/18 11:58:51;;;;;;;;;;;;;;;-140.72;0.00;52338.09;5081074;28;19916;-69
2023/09/18 12:01:18;;;;;;;;;;;;;;;-140.72;0.00;52362.44;5084008;28;20315;-68
2023/09/18 12:03:44;;;;;;;;;;;;;;;-140.72;64.38;52447.69;5072710;28;19974;-69
2023/09/18 12:06:12;;;;;;;;;;;;;;;-140.72;84.12;52212.31;5080321;28;20294;-69
2023/09/18 12:08:38;;;;;;;;;;;;;;;-140.72;0.00;52273.19;5088678;28;19916;-69
2023/09/18 12:11:06;;;;;;;;;;;;;;;-140.72;0.00;52362.44;5084698;28;19924;-70
2023/09/18 12:13:32;;;;;;;;;;;;;;;-140.72;61.55;52431.44;5074167;28;19932;-69
2023/09/18 12:15:58;;;;;;;;;;;;;;;-140.72;59.87;52265.06;5070313;28;19921;-69
2023/09/18 12:18:25;;;;;;;;;;;;;;;-140.72;0.00;52285.34;5069023;28;19927;-69
2023/09/18 12:20:50;;;;;;;;;;;;;;;-140.72;0.00;52352.31;5079212;28;20344;-70
2023/09/18 12:23:16;;;;;;;;;;;;;;;-140.72;0.00;52390.84;5077301;28;19916;-71
2023/09/18 12:25:42;;;;;;;;;;;;;;;-140.72;0.00;52370.56;5085345;28;19924;-70